Time;durP1;ratioP1;P1;durP2;ratioP2;P2;SDS_P1;SDS_P2;PMS_P1;PMS_P2;Temp;Humidity;BMP_temperature;BMP_pressure;BME280_temperature;BME280_humidity;BME280_pressure;Samples;Min_cycle;Max_cycle;Signal;HPM_P1;HPM_P2
2022/06/04 00:02:01;;;;;;;10.03;9.03;;;;;;;;;;5007458;28;20485;-72
2022/06/04 00:04:27;;;;;;;11.33;10.23;;;;;;;;;;5006762;28;20407;-72
2022/06/04 00:06:54;;;;;;;11.37;10.33;;;;;;;;;;5006126;28;20498;-72
2022/06/04 00:09:21;;;;;;;13.87;12.23;;;;;;;;;;5006920;28;20431;-70
2022/06/04 00:17:18;;;;;;;14.33;12.80;;;;;;;;;;5006820;28;20441;-70
2022/06/04 00:19:44;;;;;;;15.07;13.47;;;;;;;;;;5007718;28;20458;-70
2022/06/04 00:22:10;;;;;;;16.50;14.73;;;;;;;;;;5009440;28;20435;-69
2022/06/04 00:24:37;;;;;;;15.10;13.50;;;;;;;;;;5009455;28;20502;-69
2022/06/04 00:27:03;;;;;;;15.87;12.53;;;;;;;;;;5009266;28;20838;-70
2022/06/04 00:29:31;;;;;;;15.73;12.37;;;;;;;;;;5009180;28;20511;-69
2022/06/04 00:31:57;;;;;;;13.57;11.43;;;;;;;;;;5009824;28;20501;-72
2022/06/04 00:34:24;;;;;;;12.93;11.63;;;;;;;;;;5009610;28;20499;-72
2022/06/04 00:36:50;;;;;;;17.07;11.57;;;;;;;;;;5008884;28;20445;-71
2022/06/04 00:39:16;;;;;;;14.63;11.37;;;;;;;;;;5008172;28;20550;-72
2022/06/04 00:41:59;;;;;;;14.80;11.60;;;;;;;;;;5009473;28;20526;-72
2022/06/04 00:44:31;;;;;;;13.87;12.47;;;;;;;;;;5008702;28;20415;-71
2022/06/04 00:47:03;;;;;;;14.00;12.50;;;;;;;;;;5008685;28;20430;-72
2022/06/04 00:49:30;;;;;;;16.40;13.47;;;;;;;;;;5008682;28;20423;-71
2022/06/04 00:51:56;;;;;;;14.60;12.63;;;;;;;;;;5008838;28;20445;-72
2022/06/04 00:54:22;;;;;;;15.57;12.53;;;;;;;;;;5009039;28;20411;-72
2022/06/04 00:56:48;;;;;;;22.57;14.20;;;;;;;;;;5008517;28;20419;-72
2022/06/04 00:59:17;;;;;;;16.77;13.93;;;;;;;;;;5008267;28;20814;-72
2022/06/04 01:01:57;;;;;;;19.20;13.37;;;;;;;;;;5009757;28;20443;-71
2022/06/04 01:07:15;;;;;;;16.30;13.80;;;;;;;;;;5008782;28;20446;-72
2022/06/04 01:09:47;;;;;;;17.53;15.63;;;;;;;;;;5008382;28;20431;-70
2022/06/04 01:12:33;;;;;;;16.77;14.70;;;;;;;;;;5009109;28;20507;-72
2022/06/04 01:15:19;;;;;;;18.70;16.00;;;;;;;;;;5012785;28;20453;-71
2022/06/04 01:17:45;;;;;;;17.13;14.30;;;;;;;;;;5013032;28;20862;-71
2022/06/04 01:20:17;;;;;;;16.50;13.43;;;;;;;;;;5007212;28;20789;-71
2022/06/04 01:22:53;;;;;;;19.43;13.33;;;;;;;;;;5004631;28;21200;-69
2022/06/04 01:25:31;;;;;;;21.17;14.50;;;;;;;;;;5008411;28;20488;-71
2022/06/04 01:28:08;;;;;;;24.13;15.67;;;;;;;;;;5008078;28;20857;-71
2022/06/04 01:30:39;;;;;;;23.60;15.50;;;;;;;;;;5008404;28;20446;-72
2022/06/04 01:33:26;;;;;;;22.20;15.63;;;;;;;;;;5007842;28;20427;-71
2022/06/04 01:35:52;;;;;;;30.50;18.43;;;;;;;;;;5008013;28;20414;-71
2022/06/04 01:38:24;;;;;;;26.37;18.70;;;;;;;;;;5004124;28;20462;-71
2022/06/04 01:41:09;;;;;;;32.43;21.43;;;;;;;;;;5005665;28;20534;-72
2022/06/04 01:43:52;;;;;;;33.60;20.60;;;;;;;;;;5007368;28;20502;-71
2022/06/04 01:46:39;;;;;;;41.17;23.63;;;;;;;;;;5006943;28;20525;-71
2022/06/04 01:49:13;;;;;;;42.80;24.97;;;;;;;;;;5007895;28;20521;-70
2022/06/04 01:51:40;;;;;;;38.70;20.63;;;;;;;;;;5007766;28;20445;-70
2022/06/04 01:54:09;;;;;;;45.37;22.57;;;;;;;;;;5008402;28;21056;-69
2022/06/04 01:56:41;;;;;;;38.47;21.47;;;;;;;;;;5008500;28;20411;-70
2022/06/04 01:59:15;;;;;;;48.13;21.30;;;;;;;;;;5001631;28;20545;-71
2022/06/04 02:01:42;;;;;;;37.23;20.00;;;;;;;;;;5009119;28;20583;-71
2022/06/04 02:04:11;;;;;;;57.13;25.77;;;;;;;;;;5008699;28;20423;-71
2022/06/04 02:06:40;;;;;;;45.63;23.10;;;;;;;;;;5006537;28;20802;-68
2022/06/04 02:09:12;;;;;;;48.73;24.50;;;;;;;;;;5003866;28;20419;-69
2022/06/04 02:11:39;;;;;;;52.70;25.70;;;;;;;;;;5012028;28;20482;-71
2022/06/04 02:14:06;;;;;;;49.87;25.33;;;;;;;;;;5011798;28;20427;-71
2022/06/04 02:16:32;;;;;;;47.43;22.57;;;;;;;;;;5012141;28;20431;-71
2022/06/04 02:18:59;;;;;;;43.70;20.60;;;;;;;;;;5011567;28;20461;-70
2022/06/04 02:21:27;;;;;;;40.40;21.70;;;;;;;;;;5002441;28;20522;-71
2022/06/04 02:23:53;;;;;;;54.10;23.77;;;;;;;;;;4992473;28;20835;-71
2022/06/04 02:26:19;;;;;;;71.57;25.53;;;;;;;;;;4992621;28;20404;-70
2022/06/04 02:28:46;;;;;;;64.30;28.70;;;;;;;;;;4991725;28;20517;-69
2022/06/04 02:31:18;;;;;;;57.60;25.90;;;;;;;;;;4992009;28;20515;-71
2022/06/04 02:33:56;;;;;;;56.10;25.70;;;;;;;;;;5002983;28;20937;-71
2022/06/04 02:36:27;;;;;;;48.43;25.37;;;;;;;;;;5010985;28;20418;-71
2022/06/04 02:39:02;;;;;;;57.13;25.83;;;;;;;;;;5019079;28;20922;-70
2022/06/04 02:41:31;;;;;;;54.17;25.37;;;;;;;;;;5024820;28;20521;-70
2022/06/04 02:44:07;;;;;;;48.27;23.50;;;;;;;;;;5019553;28;20411;-70
2022/06/04 02:46:33;;;;;;;48.37;23.07;;;;;;;;;;5011654;28;20490;-69
2022/06/04 02:49:03;;;;;;;41.80;22.07;;;;;;;;;;5011025;28;20470;-69
2022/06/04 02:51:34;;;;;;;42.07;21.63;;;;;;;;;;5010485;28;20439;-71
2022/06/04 02:54:02;;;;;;;39.57;20.47;;;;;;;;;;5011573;28;20415;-71
2022/06/04 02:56:31;;;;;;;38.13;20.40;;;;;;;;;;5011623;28;20414;-71
2022/06/04 02:59:02;;;;;;;38.63;19.20;;;;;;;;;;5010021;28;20499;-70
2022/06/04 03:01:30;;;;;;;54.47;21.30;;;;;;;;;;5028922;28;20426;-71
2022/06/04 03:03:56;;;;;;;55.00;21.13;;;;;;;;;;5031461;28;20445;-70
2022/06/04 03:06:24;;;;;;;48.07;21.73;;;;;;;;;;5030239;28;20398;-71
2022/06/04 03:08:50;;;;;;;46.03;23.90;;;;;;;;;;5030365;28;20417;-72
2022/06/04 03:11:16;;;;;;;46.63;24.40;;;;;;;;;;5012302;28;20953;-72
2022/06/04 03:13:44;;;;;;;63.83;23.60;;;;;;;;;;5011156;28;20468;-69
2022/06/04 03:16:10;;;;;;;46.30;20.27;;;;;;;;;;5010412;28;20419;-70
2022/06/04 03:18:36;;;;;;;44.10;22.50;;;;;;;;;;5009842;28;20486;-71
2022/06/04 03:21:03;;;;;;;97.37;24.80;;;;;;;;;;5000896;28;20517;-70
2022/06/04 03:23:29;;;;;;;64.60;26.23;;;;;;;;;;5011106;28;20419;-71
2022/06/04 03:25:55;;;;;;;83.10;24.30;;;;;;;;;;5010322;28;20617;-71
2022/06/04 03:28:21;;;;;;;36.50;22.70;;;;;;;;;;5009737;28;20908;-71
2022/06/04 03:30:47;;;;;;;39.60;23.30;;;;;;;;;;5009419;28;20697;-70
2022/06/04 03:33:13;;;;;;;47.63;24.03;;;;;;;;;;5010930;28;20609;-71
2022/06/04 03:35:39;;;;;;;54.93;23.37;;;;;;;;;;5009160;28;20416;-71
2022/06/04 03:38:05;;;;;;;30.43;18.67;;;;;;;;;;5010070;28;20458;-72
2022/06/04 03:40:31;;;;;;;27.40;18.80;;;;;;;;;;5009591;28;20931;-69
2022/06/04 03:42:57;;;;;;;22.80;19.23;;;;;;;;;;5010026;28;20514;-70
2022/06/04 03:45:26;;;;;;;34.50;18.30;;;;;;;;;;5009748;28;20922;-71
2022/06/04 03:47:54;;;;;;;29.33;18.20;;;;;;;;;;5009542;28;20423;-70
2022/06/04 03:50:20;;;;;;;30.37;20.43;;;;;;;;;;5008689;28;20565;-71
2022/06/04 03:52:47;;;;;;;25.13;18.23;;;;;;;;;;5009335;28;20423;-71
2022/06/04 03:55:13;;;;;;;22.87;17.90;;;;;;;;;;5003518;28;20998;-72
2022/06/04 04:00:16;;;;;;;21.53;16.00;;;;;;;;;;5011481;28;21150;-72
2022/06/04 04:02:43;;;;;;;28.37;16.27;;;;;;;;;;5009800;28;20771;-71
2022/06/04 04:05:10;;;;;;;22.40;17.27;;;;;;;;;;5009092;28;20423;-73
2022/06/04 04:07:36;;;;;;;18.73;16.20;;;;;;;;;;5008499;28;20438;-70
2022/06/04 04:10:02;;;;;;;27.20;17.63;;;;;;;;;;5009052;28;20507;-70
2022/06/04 04:12:29;;;;;;;27.10;18.10;;;;;;;;;;5009822;28;20451;-71
2022/06/04 04:14:55;;;;;;;20.40;18.20;;;;;;;;;;5015636;28;20425;-70
2022/06/04 04:17:22;;;;;;;31.33;17.17;;;;;;;;;;5020443;28;20408;-73
2022/06/04 04:19:48;;;;;;;32.90;19.97;;;;;;;;;;5008663;28;20459;-71
2022/06/04 04:22:14;;;;;;;27.27;18.70;;;;;;;;;;5009283;28;20558;-73
2022/06/04 04:24:41;;;;;;;40.03;19.50;;;;;;;;;;5013664;28;20447;-71
2022/06/04 04:27:07;;;;;;;31.23;19.10;;;;;;;;;;5011367;28;20466;-73
2022/06/04 04:29:33;;;;;;;22.60;19.23;;;;;;;;;;5013077;28;20419;-69
2022/06/04 04:31:59;;;;;;;36.37;20.27;;;;;;;;;;5017874;28;20497;-70
2022/06/04 04:34:25;;;;;;;31.63;19.63;;;;;;;;;;5021631;28;20434;-69
2022/06/04 04:36:51;;;;;;;33.17;20.93;;;;;;;;;;5020769;28;20427;-70
2022/06/04 04:39:17;;;;;;;30.37;18.20;;;;;;;;;;5019296;28;20462;-70
2022/06/04 04:41:43;;;;;;;31.00;19.33;;;;;;;;;;5020460;28;20458;-70
2022/06/04 04:44:09;;;;;;;31.63;19.23;;;;;;;;;;5020855;28;20430;-70
2022/06/04 04:46:35;;;;;;;32.10;20.20;;;;;;;;;;5021645;28;20415;-72
2022/06/04 04:49:01;;;;;;;33.67;22.30;;;;;;;;;;5021021;28;20415;-73
2022/06/04 04:51:30;;;;;;;33.90;21.50;;;;;;;;;;5015152;28;20439;-72
2022/06/04 04:53:57;;;;;;;26.57;18.93;;;;;;;;;;5008560;28;20518;-71
2022/06/04 04:56:24;;;;;;;31.03;19.47;;;;;;;;;;5009012;28;20506;-72
2022/06/04 04:58:50;;;;;;;33.63;21.93;;;;;;;;;;5006958;28;20459;-71
2022/06/04 05:01:17;;;;;;;31.60;21.53;;;;;;;;;;5010212;28;20431;-71
2022/06/04 05:03:44;;;;;;;32.70;22.03;;;;;;;;;;5008566;28;20411;-70
2022/06/04 05:06:11;;;;;;;34.73;21.87;;;;;;;;;;5007537;28;20415;-71
2022/06/04 05:08:37;;;;;;;25.80;20.23;;;;;;;;;;5006637;28;20900;-71
2022/06/04 05:11:11;;;;;;;31.97;22.33;;;;;;;;;;5008323;28;20455;-71
2022/06/04 05:13:37;;;;;;;38.13;22.30;;;;;;;;;;5008874;28;20443;-72
2022/06/04 05:16:04;;;;;;;35.33;22.10;;;;;;;;;;5007730;28;20423;-72
2022/06/04 05:18:30;;;;;;;34.30;21.43;;;;;;;;;;5007869;28;20459;-72
2022/06/04 05:21:06;;;;;;;40.00;20.07;;;;;;;;;;5007222;28;20435;-72
2022/06/04 05:23:32;;;;;;;31.47;20.57;;;;;;;;;;5009346;28;20518;-71
2022/06/04 05:25:58;;;;;;;34.40;22.73;;;;;;;;;;5008250;28;20460;-70
2022/06/04 05:28:24;;;;;;;35.80;21.83;;;;;;;;;;5008180;28;20420;-70
2022/06/04 05:30:50;;;;;;;40.80;26.33;;;;;;;;;;5007162;28;20485;-70
2022/06/04 05:33:16;;;;;;;45.77;25.77;;;;;;;;;;5007072;28;20419;-70
2022/06/04 05:35:42;;;;;;;38.77;24.73;;;;;;;;;;5007683;28;20763;-70
2022/06/04 05:38:08;;;;;;;37.00;24.37;;;;;;;;;;5008643;28;20847;-70
2022/06/04 05:40:34;;;;;;;35.83;23.27;;;;;;;;;;5019600;28;20423;-70
2022/06/04 05:43:00;;;;;;;31.30;23.90;;;;;;;;;;5009224;28;20443;-72
2022/06/04 05:45:26;;;;;;;28.83;23.60;;;;;;;;;;5010127;28;20517;-70
2022/06/04 05:47:52;;;;;;;26.53;20.93;;;;;;;;;;5010813;28;20414;-69
2022/06/04 05:50:18;;;;;;;27.70;22.43;;;;;;;;;;5011674;28;20850;-72
2022/06/04 05:52:44;;;;;;;22.13;19.73;;;;;;;;;;5007727;28;21017;-70
2022/06/04 05:55:11;;;;;;;18.90;16.87;;;;;;;;;;5011173;28;20419;-71
2022/06/04 05:57:37;;;;;;;20.90;16.73;;;;;;;;;;5007964;28;20469;-71
2022/06/04 06:00:07;;;;;;;21.10;17.50;;;;;;;;;;5017771;28;20983;-71
2022/06/04 06:02:33;;;;;;;21.03;18.83;;;;;;;;;;5032166;28;20414;-72
2022/06/04 06:05:00;;;;;;;24.57;19.70;;;;;;;;;;5012860;28;20417;-70
2022/06/04 06:07:26;;;;;;;20.97;18.67;;;;;;;;;;5011359;28;20527;-70
2022/06/04 06:09:52;;;;;;;21.40;19.17;;;;;;;;;;5011383;28;20426;-70
2022/06/04 06:12:18;;;;;;;18.90;17.20;;;;;;;;;;5012373;28;20492;-70
2022/06/04 06:14:44;;;;;;;17.30;15.50;;;;;;;;;;5011526;28;20902;-70
2022/06/04 06:17:10;;;;;;;17.90;16.10;;;;;;;;;;5011146;28;20485;-72
2022/06/04 06:19:36;;;;;;;17.03;15.43;;;;;;;;;;5010675;28;20470;-69
2022/06/04 06:22:02;;;;;;;16.83;14.90;;;;;;;;;;5011117;28;21169;-70
2022/06/04 06:24:28;;;;;;;14.97;13.57;;;;;;;;;;5011652;28;20415;-70
2022/06/04 06:26:57;;;;;;;13.07;11.73;;;;;;;;;;5011198;28;20530;-71
2022/06/04 06:29:24;;;;;;;12.30;11.20;;;;;;;;;;5004375;28;20423;-70
2022/06/04 06:31:50;;;;;;;12.90;10.80;;;;;;;;;;5011241;28;20573;-72
2022/06/04 06:34:16;;;;;;;12.73;11.73;;;;;;;;;;5010335;28;20522;-72
2022/06/04 06:36:42;;;;;;;11.70;10.60;;;;;;;;;;5011078;28;20414;-72
2022/06/04 06:39:09;;;;;;;11.20;10.30;;;;;;;;;;5006218;28;20459;-72
2022/06/04 06:41:35;;;;;;;11.13;10.27;;;;;;;;;;5006110;28;20536;-72
2022/06/04 06:44:01;;;;;;;10.20;9.40;;;;;;;;;;5008972;28;20578;-71
2022/06/04 06:46:30;;;;;;;9.87;9.03;;;;;;;;;;5010216;28;20892;-70
2022/06/04 06:48:59;;;;;;;9.33;8.53;;;;;;;;;;5010580;28;20486;-70
2022/06/04 06:51:27;;;;;;;9.73;8.93;;;;;;;;;;5004240;28;20469;-70
2022/06/04 06:53:56;;;;;;;8.57;7.77;;;;;;;;;;5011212;28;20423;-69
2022/06/04 06:56:32;;;;;;;9.03;8.33;;;;;;;;;;5010565;28;20866;-70
2022/06/04 06:58:59;;;;;;;9.90;6.50;;;;;;;;;;5010231;28;20537;-70
2022/06/04 07:01:26;;;;;;;6.63;5.90;;;;;;;;;;5014629;28;20935;-70
2022/06/04 07:03:53;;;;;;;6.73;5.63;;;;;;;;;;5010688;28;20418;-70
2022/06/04 07:06:28;;;;;;;6.27;5.70;;;;;;;;;;5009844;28;20486;-70
2022/06/04 07:08:54;;;;;;;6.33;5.73;;;;;;;;;;5009741;28;20501;-70
2022/06/04 07:11:20;;;;;;;6.10;5.60;;;;;;;;;;5010570;28;20437;-71
2022/06/04 07:13:46;;;;;;;6.10;5.60;;;;;;;;;;5009624;28;20430;-71
2022/06/04 07:16:12;;;;;;;6.97;6.37;;;;;;;;;;5012461;28;20411;-71
2022/06/04 07:18:38;;;;;;;7.37;5.43;;;;;;;;;;5009843;28;20195;-71
2022/06/04 07:21:05;;;;;;;6.30;5.40;;;;;;;;;;5009575;28;20538;-71
2022/06/04 07:23:34;;;;;;;6.37;5.70;;;;;;;;;;5011030;28;20915;-71
2022/06/04 07:26:00;;;;;;;6.10;4.33;;;;;;;;;;5010706;28;20843;-70
2022/06/04 07:28:27;;;;;;;6.10;5.20;;;;;;;;;;5006267;28;20533;-69
2022/06/04 07:30:54;;;;;;;5.23;4.70;;;;;;;;;;5009673;28;20462;-69
2022/06/04 07:33:20;;;;;;;8.57;4.77;;;;;;;;;;5010960;28;20719;-69
2022/06/04 07:35:49;;;;;;;7.07;4.53;;;;;;;;;;5009460;28;20415;-70
2022/06/04 07:38:16;;;;;;;9.03;5.10;;;;;;;;;;5009663;28;20482;-69
2022/06/04 07:40:42;;;;;;;7.87;5.23;;;;;;;;;;5009685;28;20493;-69
2022/06/04 07:43:08;;;;;;;5.73;4.47;;;;;;;;;;5006063;28;20435;-69
2022/06/04 07:45:34;;;;;;;9.37;4.63;;;;;;;;;;4990553;28;20392;-69
2022/06/04 07:48:01;;;;;;;5.90;4.67;;;;;;;;;;4990292;28;20450;-69
2022/06/04 07:50:27;;;;;;;5.00;4.50;;;;;;;;;;4996023;28;20419;-69
2022/06/04 07:52:53;;;;;;;12.87;5.30;;;;;;;;;;5010975;28;20952;-69
2022/06/04 07:55:19;;;;;;;5.03;4.60;;;;;;;;;;5012282;28;20446;-68
2022/06/04 07:57:45;;;;;;;4.80;4.40;;;;;;;;;;5012073;28;20407;-68
2022/06/04 08:00:11;;;;;;;5.63;4.70;;;;;;;;;;5018422;28;21045;-69
2022/06/04 08:02:38;;;;;;;4.50;4.10;;;;;;;;;;5030988;28;20752;-68
2022/06/04 08:05:04;;;;;;;7.13;4.63;;;;;;;;;;5029594;28;21044;-69
2022/06/04 08:07:30;;;;;;;8.63;5.20;;;;;;;;;;5018638;28;20893;-69
2022/06/04 08:09:56;;;;;;;6.03;4.53;;;;;;;;;;4989970;28;20401;-69
2022/06/04 08:12:22;;;;;;;5.40;5.00;;;;;;;;;;5003429;28;20416;-68
2022/06/04 08:14:48;;;;;;;7.20;4.73;;;;;;;;;;5008280;28;20467;-69
2022/06/04 08:17:14;;;;;;;6.60;4.73;;;;;;;;;;5008053;28;20403;-69
2022/06/04 08:19:41;;;;;;;6.73;4.70;;;;;;;;;;5009234;28;20457;-69
2022/06/04 08:22:07;;;;;;;7.43;4.77;;;;;;;;;;5009702;28;20423;-69
2022/06/04 08:24:33;;;;;;;6.40;4.77;;;;;;;;;;5009993;28;20406;-69
2022/06/04 08:27:02;;;;;;;4.93;4.40;;;;;;;;;;5009518;28;20407;-69
2022/06/04 08:29:30;;;;;;;9.13;4.47;;;;;;;;;;5006883;28;20441;-69
2022/06/04 08:31:56;;;;;;;10.17;4.47;;;;;;;;;;5009466;28;21012;-69
2022/06/04 08:34:22;;;;;;;4.73;4.33;;;;;;;;;;4998137;28;20415;-70
2022/06/04 08:36:48;;;;;;;7.37;4.10;;;;;;;;;;5008647;28;20418;-70
2022/06/04 08:39:15;;;;;;;7.30;4.33;;;;;;;;;;5008939;28;20460;-70
2022/06/04 08:42:00;;;;;;;5.00;4.50;;;;;;;;;;5008426;28;20645;-70
2022/06/04 08:44:33;;;;;;;5.43;4.90;;;;;;;;;;5002610;28;20258;-69
2022/06/04 08:47:06;;;;;;;4.83;4.43;;;;;;;;;;5008381;28;20225;-69
2022/06/04 08:49:39;;;;;;;8.13;5.13;;;;;;;;;;5002476;28;20469;-69
2022/06/04 08:52:25;;;;;;;7.00;4.53;;;;;;;;;;5008397;28;20222;-70
2022/06/04 08:57:42;;;;;;;6.00;4.25;;;;;;;;;;5007110;28;20206;-70
2022/06/04 09:00:11;;;;;;;8.73;5.05;;;;;;;;;;5013033;28;20214;-71
2022/06/04 09:03:12;;;;;;;5.05;4.40;;;;;;;;;;5009155;28;20216;-69
2022/06/04 09:05:44;;;;;;;4.28;3.78;;;;;;;;;;4947452;29;20181;-69
2022/06/04 09:08:15;;;;;;;4.50;4.10;;;;;;;;;;4997973;28;20663;-70
2022/06/04 09:10:47;;;;;;;10.40;5.40;;;;;;;;;;5007475;28;20698;-69
2022/06/04 09:13:17;;;;;;;5.63;4.90;;;;;;;;;;5007046;28;20274;-70
2022/06/04 09:15:46;;;;;;;4.57;4.18;;;;;;;;;;5007821;28;20175;-69
2022/06/04 09:18:15;;;;;;;4.70;4.00;;;;;;;;;;5009560;28;20203;-69
2022/06/04 09:20:45;;;;;;;5.07;4.68;;;;;;;;;;5012012;28;20191;-71
2022/06/04 09:23:30;;;;;;;4.25;3.85;;;;;;;;;;5013105;28;20179;-71
2022/06/04 09:26:02;;;;;;;4.22;3.80;;;;;;;;;;5013202;28;20198;-70
2022/06/04 09:28:43;;;;;;;7.05;5.32;;;;;;;;;;5012291;28;20176;-71
2022/06/04 09:31:28;;;;;;;4.78;3.72;;;;;;;;;;5010818;28;20293;-71
2022/06/04 09:34:04;;;;;;;5.85;5.20;;;;;;;;;;5009119;28;20580;-72
2022/06/04 09:36:34;;;;;;;4.50;4.10;;;;;;;;;;5002769;28;20194;-71
2022/06/04 09:39:03;;;;;;;7.10;4.70;;;;;;;;;;5000616;28;20652;-71
2022/06/04 09:41:32;;;;;;;5.18;4.32;;;;;;;;;;5003191;28;20195;-72
2022/06/04 09:44:01;;;;;;;5.70;4.50;;;;;;;;;;5001590;28;20168;-71
2022/06/04 09:46:27;;;;;;;5.83;5.23;;;;;;;;;;5003277;28;20176;-71
2022/06/04 09:48:54;;;;;;;9.63;5.37;;;;;;;;;;5009540;28;20644;-71
2022/06/04 09:51:24;;;;;;;9.57;5.10;;;;;;;;;;5011368;28;20195;-70
2022/06/04 09:54:04;;;;;;;5.37;4.87;;;;;;;;;;5012733;28;20554;-70
2022/06/04 09:56:41;;;;;;;5.40;4.90;;;;;;;;;;5012099;28;20790;-70
2022/06/04 09:59:09;;;;;;;5.50;4.10;;;;;;;;;;5012311;28;20195;-70
2022/06/04 10:01:36;;;;;;;5.47;4.97;;;;;;;;;;5030363;28;20214;-72
2022/06/04 10:04:04;;;;;;;5.47;4.97;;;;;;;;;;5012028;28;20925;-71
2022/06/04 10:06:30;;;;;;;12.73;5.30;;;;;;;;;;5012706;28;20411;-71
2022/06/04 10:11:49;;;;;;;4.30;3.80;;;;;;;;;;5016716;28;20425;-71
2022/06/04 10:14:15;;;;;;;4.97;4.50;;;;;;;;;;5020159;28;20820;-70
2022/06/04 10:16:46;;;;;;;4.50;3.73;;;;;;;;;;5029336;28;20414;-69
2022/06/04 10:19:15;;;;;;;5.77;4.37;;;;;;;;;;5038000;28;20449;-69
2022/06/04 10:21:42;;;;;;;5.18;4.68;;;;;;;;;;5039104;28;20187;-69
2022/06/04 10:24:25;;;;;;;4.30;3.90;;;;;;;;;;5040866;28;20167;-69
2022/06/04 10:26:51;;;;;;;5.38;4.15;;;;;;;;;;5033104;28;20187;-69
2022/06/04 10:29:17;;;;;;;4.13;3.72;;;;;;;;;;5018343;28;20176;-69
2022/06/04 10:31:52;;;;;;;4.07;3.15;;;;;;;;;;5017182;28;20221;-69
2022/06/04 10:34:21;;;;;;;4.60;3.58;;;;;;;;;;5013148;28;21578;-70
2022/06/04 10:37:06;;;;;;;3.92;3.50;;;;;;;;;;5011617;28;20747;-69
2022/06/04 10:39:46;;;;;;;3.67;3.30;;;;;;;;;;5008168;28;20191;-69
2022/06/04 10:42:24;;;;;;;5.00;3.88;;;;;;;;;;5011598;28;20262;-69
2022/06/04 10:44:50;;;;;;;5.13;4.10;;;;;;;;;;5010544;28;20191;-69
2022/06/04 10:47:26;;;;;;;5.63;4.85;;;;;;;;;;5011171;28;20267;-68
2022/06/04 10:50:21;;;;;;;5.20;4.80;;;;;;;;;;5010517;28;20755;-68
2022/06/04 10:52:53;;;;;;;4.97;4.57;;;;;;;;;;4940912;28;20249;-68
2022/06/04 10:55:19;;;;;;;7.90;5.87;;;;;;;;;;5011604;28;20152;-70
2022/06/04 10:57:49;;;;;;;9.63;5.53;;;;;;;;;;5011267;28;20201;-68
2022/06/04 11:00:19;;;;;;;6.53;5.90;;;;;;;;;;5018540;28;20405;-69
2022/06/04 11:02:53;;;;;;;5.33;4.80;;;;;;;;;;5031734;28;20167;-69
2022/06/04 11:05:22;;;;;;;5.87;5.30;;;;;;;;;;5031251;28;20394;-69
2022/06/04 11:08:06;;;;;;;12.03;6.37;;;;;;;;;;5030317;28;20850;-69
2022/06/04 11:10:34;;;;;;;5.33;4.67;;;;;;;;;;5030775;28;20425;-69
2022/06/04 11:13:02;;;;;;;4.90;4.50;;;;;;;;;;5030581;28;20524;-69
2022/06/04 11:15:38;;;;;;;5.20;4.70;;;;;;;;;;5028731;28;20443;-69
2022/06/04 11:18:13;;;;;;;5.50;5.03;;;;;;;;;;5030131;28;20477;-68
2022/06/04 11:21:03;;;;;;;8.27;3.90;;;;;;;;;;5029856;28;20413;-68
2022/06/04 11:23:33;;;;;;;6.23;4.10;;;;;;;;;;5023483;28;20824;-68
2022/06/04 11:26:03;;;;;;;5.83;5.03;;;;;;;;;;5030449;28;20496;-68
2022/06/04 11:28:30;;;;;;;6.20;3.90;;;;;;;;;;5029981;28;20413;-68
2022/06/04 11:31:11;;;;;;;9.10;4.47;;;;;;;;;;5030081;28;20452;-69
2022/06/04 11:33:50;;;;;;;3.87;3.57;;;;;;;;;;5030673;28;20403;-69
2022/06/04 11:36:28;;;;;;;9.03;4.70;;;;;;;;;;5030298;28;20859;-69
2022/06/04 11:38:54;;;;;;;7.20;4.50;;;;;;;;;;5030018;28;20449;-69
2022/06/04 11:41:19;;;;;;;4.67;4.10;;;;;;;;;;5018319;28;20445;-69
2022/06/04 11:43:46;;;;;;;7.03;4.20;;;;;;;;;;5010816;28;20402;-68
2022/06/04 11:46:24;;;;;;;4.63;4.23;;;;;;;;;;5010574;28;20221;-68
2022/06/04 11:49:13;;;;;;;4.20;3.80;;;;;;;;;;5010565;28;20403;-68
2022/06/04 11:51:49;;;;;;;3.73;3.40;;;;;;;;;;5007317;28;20453;-68
2022/06/04 11:54:34;;;;;;;4.30;3.33;;;;;;;;;;5010682;28;20402;-68
2022/06/04 11:57:20;;;;;;;6.33;4.50;;;;;;;;;;5017238;28;20930;-70
2022/06/04 12:00:04;;;;;;;4.37;3.90;;;;;;;;;;5008550;28;20648;-69
2022/06/04 12:02:30;;;;;;;5.80;4.27;;;;;;;;;;5010225;28;20406;-69
2022/06/04 12:05:02;;;;;;;6.73;4.13;;;;;;;;;;5010629;28;20405;-70
2022/06/04 12:07:36;;;;;;;5.17;3.87;;;;;;;;;;5010368;28;20403;-69
2022/06/04 12:10:22;;;;;;;8.53;4.20;;;;;;;;;;5009945;28;20419;-69
2022/06/04 12:12:54;;;;;;;9.30;4.77;;;;;;;;;;5010458;28;20410;-69
2022/06/04 12:15:23;;;;;;;11.83;5.23;;;;;;;;;;5010442;28;20549;-69
2022/06/04 12:17:57;;;;;;;7.20;4.33;;;;;;;;;;5010131;28;20403;-69
2022/06/04 12:26:25;;;;;;;3.83;3.47;;;;;;;;;;5010114;28;20575;-68
2022/06/04 12:28:52;;;;;;;4.90;3.40;;;;;;;;;;5009745;28;21211;-68
2022/06/04 12:31:47;;;;;;;6.70;3.77;;;;;;;;;;5010022;28;20454;-68
2022/06/04 12:34:35;;;;;;;7.50;4.20;;;;;;;;;;5004356;28;20411;-70
2022/06/04 12:37:02;;;;;;;5.70;3.40;;;;;;;;;;5009307;28;20402;-70
2022/06/04 12:39:29;;;;;;;4.37;3.57;;;;;;;;;;5008609;28;20498;-70
2022/06/04 12:41:57;;;;;;;11.97;3.90;;;;;;;;;;5007345;28;20426;-71
2022/06/04 12:44:30;;;;;;;5.20;3.37;;;;;;;;;;5009243;28;20402;-69
2022/06/04 12:46:58;;;;;;;7.80;3.30;;;;;;;;;;5009104;28;20474;-69
2022/06/04 12:49:30;;;;;;;4.10;2.80;;;;;;;;;;5008892;28;20407;-69
2022/06/04 12:52:01;;;;;;;3.67;2.73;;;;;;;;;;5008519;28;20912;-69
2022/06/04 12:54:44;;;;;;;5.07;2.87;;;;;;;;;;5007616;28;20415;-70
2022/06/04 12:57:17;;;;;;;2.53;2.33;;;;;;;;;;5008836;28;20435;-70
2022/06/04 12:59:44;;;;;;;2.90;2.60;;;;;;;;;;5011548;28;20454;-70
2022/06/04 13:02:31;;;;;;;5.40;3.50;;;;;;;;;;5028679;28;20475;-70
2022/06/04 13:05:08;;;;;;;3.00;2.67;;;;;;;;;;5028981;28;20919;-69
2022/06/04 13:07:39;;;;;;;3.97;3.30;;;;;;;;;;5028852;28;20405;-70
2022/06/04 13:10:20;;;;;;;4.57;2.67;;;;;;;;;;5028840;28;20398;-70
2022/06/04 13:12:59;;;;;;;3.40;2.70;;;;;;;;;;5028620;28;20409;-70
2022/06/04 13:15:26;;;;;;;7.27;4.10;;;;;;;;;;5021946;28;20524;-70
2022/06/04 13:17:53;;;;;;;3.90;2.87;;;;;;;;;;5025182;28;20847;-70
2022/06/04 13:20:37;;;;;;;3.60;2.70;;;;;;;;;;5028079;28;20476;-70
2022/06/04 13:23:15;;;;;;;4.47;3.00;;;;;;;;;;5029250;28;21119;-70
2022/06/04 13:25:53;;;;;;;5.40;3.70;;;;;;;;;;5030878;28;20454;-70
2022/06/04 13:28:34;;;;;;;7.43;3.40;;;;;;;;;;5028665;28;20847;-70
2022/06/04 13:31:01;;;;;;;8.67;3.77;;;;;;;;;;5028259;28;20441;-70
2022/06/04 13:33:27;;;;;;;5.93;3.23;;;;;;;;;;5029091;28;20410;-70
2022/06/04 13:35:54;;;;;;;8.00;4.13;;;;;;;;;;5027848;28;20413;-70
2022/06/04 13:38:32;;;;;;;4.20;3.47;;;;;;;;;;5021717;28;20450;-70
2022/06/04 13:42:00;;;;;;;6.83;3.50;;;;;;;;;;5008456;28;20513;-70
2022/06/04 13:44:04;;;;;;;10.63;3.93;;;;;;;;;;5008617;28;20415;-70
2022/06/04 13:46:30;;;;;;;3.90;3.60;;;;;;;;;;5010076;28;20409;-69
2022/06/04 13:48:58;;;;;;;10.60;4.10;;;;;;;;;;5008932;28;20514;-69
2022/06/04 13:51:27;;;;;;;7.27;3.70;;;;;;;;;;5008973;28;20450;-69
2022/06/04 13:53:53;;;;;;;3.47;3.17;;;;;;;;;;5009629;28;20773;-69
2022/06/04 13:56:21;;;;;;;6.23;3.27;;;;;;;;;;5010433;28;20832;-70
2022/06/04 13:58:47;;;;;;;5.73;4.10;;;;;;;;;;5009394;28;20524;-68
2022/06/04 14:01:19;;;;;;;15.60;5.57;;;;;;;;;;5024497;28;20425;-69
2022/06/04 14:03:47;;;;;;;7.23;3.87;;;;;;;;;;5030644;28;20446;-70
2022/06/04 14:06:13;;;;;;;4.80;4.40;;;;;;;;;;5032393;28;20623;-71
2022/06/04 14:08:54;;;;;;;4.87;4.07;;;;;;;;;;5032523;28;20428;-68
2022/06/04 14:11:26;;;;;;;5.13;4.20;;;;;;;;;;5032579;28;20490;-69
2022/06/04 14:13:53;;;;;;;4.97;4.47;;;;;;;;;;5035093;28;20412;-71
2022/06/04 14:16:49;;;;;;;5.20;4.50;;;;;;;;;;5035837;28;20438;-70
2022/06/04 14:19:38;;;;;;;5.37;4.87;;;;;;;;;;5021766;28;20508;-70
2022/06/04 14:22:12;;;;;;;5.07;4.57;;;;;;;;;;5015747;28;20446;-70
2022/06/04 14:24:44;;;;;;;13.00;5.37;;;;;;;;;;5017851;28;20994;-73
2022/06/04 14:27:22;;;;;;;6.70;4.90;;;;;;;;;;5006581;28;20522;-69
2022/06/04 14:29:48;;;;;;;7.53;5.07;;;;;;;;;;5011586;28;20934;-70
2022/06/04 14:32:43;;;;;;;5.13;4.73;;;;;;;;;;5012134;28;20470;-69
2022/06/04 14:35:14;;;;;;;6.10;4.70;;;;;;;;;;4998213;28;20196;-69
2022/06/04 14:37:42;;;;;;;5.50;5.10;;;;;;;;;;5010927;28;20557;-70
2022/06/04 14:40:08;;;;;;;5.80;5.20;;;;;;;;;;5020611;28;20446;-68
2022/06/04 14:42:34;;;;;;;5.70;5.20;;;;;;;;;;5014432;28;20510;-69
2022/06/04 14:45:00;;;;;;;9.20;6.03;;;;;;;;;;5010796;28;20855;-69
2022/06/04 14:47:53;;;;;;;8.40;6.03;;;;;;;;;;5010937;28;20211;-70
2022/06/04 14:50:28;;;;;;;5.23;4.80;;;;;;;;;;5001674;28;20530;-69
2022/06/04 14:53:01;;;;;;;4.60;4.17;;;;;;;;;;5010350;28;20411;-69
2022/06/04 14:55:42;;;;;;;8.00;5.77;;;;;;;;;;5008014;28;20423;-69
2022/06/04 14:58:17;;;;;;;9.73;6.17;;;;;;;;;;5010088;28;20433;-69
2022/06/04 15:01:02;;;;;;;4.87;4.47;;;;;;;;;;5009800;28;20496;-70
2022/06/04 15:03:40;;;;;;;12.13;4.80;;;;;;;;;;5007500;28;20417;-70
2022/06/04 15:06:08;;;;;;;7.57;5.67;;;;;;;;;;5009029;28;20403;-70
2022/06/04 15:08:49;;;;;;;5.50;4.37;;;;;;;;;;5011001;28;20418;-71
2022/06/04 15:11:34;;;;;;;9.10;5.20;;;;;;;;;;5011087;28;20497;-70
2022/06/04 15:14:19;;;;;;;13.53;5.00;;;;;;;;;;5011128;28;20423;-70